sensor_id;sensor_type;location;lat;lon;timestamp;P1;durP1;ratioP1;P2;durP2;ratioP2
20589;SDS011;10453;50.810;12.540;2023-05-24T00:02:36;21.00;;;7.80;;
20589;SDS011;10453;50.810;12.540;2023-05-24T00:07:00;16.00;;;5.97;;
20589;SDS011;10453;50.810;12.540;2023-05-24T00:11:20;20.40;;;6.38;;
20589;SDS011;10453;50.810;12.540;2023-05-24T00:15:38;16.65;;;6.03;;
20589;SDS011;10453;50.810;12.540;2023-05-24T00:19:56;15.65;;;5.63;;
20589;SDS011;10453;50.810;12.540;2023-05-24T00:24:14;17.30;;;5.30;;
20589;SDS011;10453;50.810;12.540;2023-05-24T00:32:50;15.77;;;5.47;;
20589;SDS011;10453;50.810;12.540;2023-05-24T00:37:08;18.38;;;5.38;;
20589;SDS011;10453;50.810;12.540;2023-05-24T00:41:25;20.75;;;5.38;;
20589;SDS011;10453;50.810;12.540;2023-05-24T00:45:43;16.77;;;4.88;;
20589;SDS011;10453;50.810;12.540;2023-05-24T00:50:00;17.45;;;4.72;;
20589;SDS011;10453;50.810;12.540;2023-05-24T00:54:19;18.02;;;5.18;;
20589;SDS011;10453;50.810;12.540;2023-05-24T00:58:36;17.53;;;5.60;;
20589;SDS011;10453;50.810;12.540;2023-05-24T01:02:54;24.00;;;4.82;;
20589;SDS011;10453;50.810;12.540;2023-05-24T01:15:54;19.40;;;4.85;;
20589;SDS011;10453;50.810;12.540;2023-05-24T01:20:16;21.52;;;4.90;;
20589;SDS011;10453;50.810;12.540;2023-05-24T01:24:43;30.45;;;6.50;;
20589;SDS011;10453;50.810;12.540;2023-05-24T01:29:23;22.85;;;5.00;;
20589;SDS011;10453;50.810;12.540;2023-05-24T01:33:42;16.52;;;4.55;;
20589;SDS011;10453;50.810;12.540;2023-05-24T01:38:00;22.90;;;5.17;;
20589;SDS011;10453;50.810;12.540;2023-05-24T01:42:33;24.10;;;5.10;;
20589;SDS011;10453;50.810;12.540;2023-05-24T01:51:48;23.25;;;4.95;;
20589;SDS011;10453;50.810;12.540;2023-05-24T01:56:10;20.25;;;4.75;;
20589;SDS011;10453;50.810;12.540;2023-05-24T02:00:28;18.17;;;4.63;;
20589;SDS011;10453;50.810;12.540;2023-05-24T02:04:48;19.58;;;4.50;;
20589;SDS011;10453;50.810;12.540;2023-05-24T02:09:06;23.42;;;4.75;;
20589;SDS011;10453;50.810;12.540;2023-05-24T02:13:23;22.42;;;4.47;;
20589;SDS011;10453;50.810;12.540;2023-05-24T02:17:41;21.83;;;4.32;;
20589;SDS011;10453;50.810;12.540;2023-05-24T02:21:58;23.42;;;4.13;;
20589;SDS011;10453;50.810;12.540;2023-05-24T02:26:16;26.80;;;4.47;;
20589;SDS011;10453;50.810;12.540;2023-05-24T02:30:34;20.33;;;3.90;;
20589;SDS011;10453;50.810;12.540;2023-05-24T02:34:51;21.83;;;4.20;;
20589;SDS011;10453;50.810;12.540;2023-05-24T02:39:08;22.15;;;3.95;;
20589;SDS011;10453;50.810;12.540;2023-05-24T02:43:26;17.90;;;4.22;;
20589;SDS011;10453;50.810;12.540;2023-05-24T02:47:43;20.08;;;4.00;;
20589;SDS011;10453;50.810;12.540;2023-05-24T02:56:19;18.92;;;4.20;;
20589;SDS011;10453;50.810;12.540;2023-05-24T03:00:37;16.07;;;4.23;;
20589;SDS011;10453;50.810;12.540;2023-05-24T03:04:56;23.13;;;4.18;;
20589;SDS011;10453;50.810;12.540;2023-05-24T03:09:13;18.05;;;3.70;;
20589;SDS011;10453;50.810;12.540;2023-05-24T03:13:32;17.42;;;3.85;;
20589;SDS011;10453;50.810;12.540;2023-05-24T03:17:49;16.80;;;4.22;;
20589;SDS011;10453;50.810;12.540;2023-05-24T03:22:07;18.75;;;3.95;;
20589;SDS011;10453;50.810;12.540;2023-05-24T03:26:24;17.95;;;4.15;;
20589;SDS011;10453;50.810;12.540;2023-05-24T03:30:42;20.43;;;4.37;;
20589;SDS011;10453;50.810;12.540;2023-05-24T03:35:00;19.50;;;3.95;;
20589;SDS011;10453;50.810;12.540;2023-05-24T03:39:18;18.33;;;4.30;;
20589;SDS011;10453;50.810;12.540;2023-05-24T03:43:35;19.90;;;3.97;;
20589;SDS011;10453;50.810;12.540;2023-05-24T03:47:53;14.55;;;3.65;;
20589;SDS011;10453;50.810;12.540;2023-05-24T03:52:10;26.02;;;4.60;;
20589;SDS011;10453;50.810;12.540;2023-05-24T03:56:27;18.15;;;4.32;;
20589;SDS011;10453;50.810;12.540;2023-05-24T04:00:45;26.80;;;5.00;;
20589;SDS011;10453;50.810;12.540;2023-05-24T04:05:04;19.97;;;4.00;;
20589;SDS011;10453;50.810;12.540;2023-05-24T04:09:25;24.55;;;3.88;;
20589;SDS011;10453;50.810;12.540;2023-05-24T04:13:43;17.85;;;4.10;;
20589;SDS011;10453;50.810;12.540;2023-05-24T04:18:00;20.13;;;4.50;;
20589;SDS011;10453;50.810;12.540;2023-05-24T04:22:19;19.05;;;3.95;;
20589;SDS011;10453;50.810;12.540;2023-05-24T04:26:40;17.50;;;4.60;;
20589;SDS011;10453;50.810;12.540;2023-05-24T04:30:58;27.15;;;4.85;;
20589;SDS011;10453;50.810;12.540;2023-05-24T04:35:15;18.92;;;4.57;;
20589;SDS011;10453;50.810;12.540;2023-05-24T04:39:32;15.85;;;4.38;;
20589;SDS011;10453;50.810;12.540;2023-05-24T04:43:50;20.98;;;4.60;;
20589;SDS011;10453;50.810;12.540;2023-05-24T04:48:07;23.67;;;6.05;;
20589;SDS011;10453;50.810;12.540;2023-05-24T04:52:25;21.15;;;4.80;;
20589;SDS011;10453;50.810;12.540;2023-05-24T04:56:43;21.85;;;4.53;;
20589;SDS011;10453;50.810;12.540;2023-05-24T05:01:01;19.17;;;4.65;;
20589;SDS011;10453;50.810;12.540;2023-05-24T05:05:27;22.50;;;4.45;;
20589;SDS011;10453;50.810;12.540;2023-05-24T05:09:45;20.67;;;5.45;;
20589;SDS011;10453;50.810;12.540;2023-05-24T05:14:03;19.95;;;4.45;;
20589;SDS011;10453;50.810;12.540;2023-05-24T05:18:21;19.85;;;4.25;;
20589;SDS011;10453;50.810;12.540;2023-05-24T05:22:38;19.15;;;4.88;;
20589;SDS011;10453;50.810;12.540;2023-05-24T05:27:00;21.38;;;4.72;;
20589;SDS011;10453;50.810;12.540;2023-05-24T05:31:19;18.88;;;4.70;;
20589;SDS011;10453;50.810;12.540;2023-05-24T05:35:37;20.20;;;4.47;;
20589;SDS011;10453;50.810;12.540;2023-05-24T05:39:54;27.20;;;5.95;;
20589;SDS011;10453;50.810;12.540;2023-05-24T05:44:12;21.55;;;4.47;;
20589;SDS011;10453;50.810;12.540;2023-05-24T05:48:29;25.55;;;4.80;;
20589;SDS011;10453;50.810;12.540;2023-05-24T05:52:46;23.10;;;4.80;;
20589;SDS011;10453;50.810;12.540;2023-05-24T05:57:04;18.40;;;4.43;;
20589;SDS011;10453;50.810;12.540;2023-05-24T06:01:23;25.45;;;4.80;;
20589;SDS011;10453;50.810;12.540;2023-05-24T06:09:59;19.42;;;5.07;;
20589;SDS011;10453;50.810;12.540;2023-05-24T06:14:17;26.60;;;5.65;;
20589;SDS011;10453;50.810;12.540;2023-05-24T06:18:35;23.52;;;5.28;;
20589;SDS011;10453;50.810;12.540;2023-05-24T06:22:53;26.23;;;5.63;;
20589;SDS011;10453;50.810;12.540;2023-05-24T06:27:11;29.52;;;5.72;;
20589;SDS011;10453;50.810;12.540;2023-05-24T06:31:28;25.83;;;5.45;;
20589;SDS011;10453;50.810;12.540;2023-05-24T06:35:46;31.33;;;5.90;;
20589;SDS011;10453;50.810;12.540;2023-05-24T06:40:05;26.95;;;5.35;;
20589;SDS011;10453;50.810;12.540;2023-05-24T06:44:25;31.67;;;6.35;;
20589;SDS011;10453;50.810;12.540;2023-05-24T06:48:49;24.15;;;5.65;;
20589;SDS011;10453;50.810;12.540;2023-05-24T06:53:06;22.90;;;6.10;;
20589;SDS011;10453;50.810;12.540;2023-05-24T06:57:24;23.30;;;5.32;;
20589;SDS011;10453;50.810;12.540;2023-05-24T07:01:47;24.55;;;5.50;;
20589;SDS011;10453;50.810;12.540;2023-05-24T07:06:07;23.58;;;5.70;;
20589;SDS011;10453;50.810;12.540;2023-05-24T07:10:25;30.50;;;6.68;;
20589;SDS011;10453;50.810;12.540;2023-05-24T07:14:43;23.08;;;5.63;;
20589;SDS011;10453;50.810;12.540;2023-05-24T07:19:00;22.65;;;6.00;;
20589;SDS011;10453;50.810;12.540;2023-05-24T07:23:20;22.15;;;6.05;;
20589;SDS011;10453;50.810;12.540;2023-05-24T07:27:38;24.48;;;6.45;;
20589;SDS011;10453;50.810;12.540;2023-05-24T07:31:55;23.52;;;5.63;;
20589;SDS011;10453;50.810;12.540;2023-05-24T07:36:14;24.42;;;5.15;;
20589;SDS011;10453;50.810;12.540;2023-05-24T07:40:33;23.80;;;5.75;;
20589;SDS011;10453;50.810;12.540;2023-05-24T07:44:50;25.83;;;5.72;;
20589;SDS011;10453;50.810;12.540;2023-05-24T07:49:08;20.83;;;5.05;;
20589;SDS011;10453;50.810;12.540;2023-05-24T07:53:25;23.95;;;5.47;;
20589;SDS011;10453;50.810;12.540;2023-05-24T07:57:43;24.85;;;5.70;;
20589;SDS011;10453;50.810;12.540;2023-05-24T08:02:00;28.08;;;6.22;;
20589;SDS011;10453;50.810;12.540;2023-05-24T08:06:21;25.15;;;5.72;;
20589;SDS011;10453;50.810;12.540;2023-05-24T08:10:41;29.30;;;6.18;;
20589;SDS011;10453;50.810;12.540;2023-05-24T08:14:59;21.35;;;5.43;;
20589;SDS011;10453;50.810;12.540;2023-05-24T08:19:16;26.95;;;6.18;;
20589;SDS011;10453;50.810;12.540;2023-05-24T08:23:34;23.75;;;5.57;;
20589;SDS011;10453;50.810;12.540;2023-05-24T08:27:53;23.45;;;5.07;;
20589;SDS011;10453;50.810;12.540;2023-05-24T08:32:11;24.88;;;5.47;;
20589;SDS011;10453;50.810;12.540;2023-05-24T08:40:48;21.65;;;5.75;;
20589;SDS011;10453;50.810;12.540;2023-05-24T08:49:27;24.83;;;6.22;;
20589;SDS011;10453;50.810;12.540;2023-05-24T08:53:49;24.85;;;6.03;;
20589;SDS011;10453;50.810;12.540;2023-05-24T08:58:07;21.33;;;5.30;;
20589;SDS011;10453;50.810;12.540;2023-05-24T09:02:25;16.67;;;5.33;;
20589;SDS011;10453;50.810;12.540;2023-05-24T09:06:43;24.95;;;5.82;;
20589;SDS011;10453;50.810;12.540;2023-05-24T09:11:02;18.05;;;5.63;;
20589;SDS011;10453;50.810;12.540;2023-05-24T09:15:22;24.13;;;5.57;;
20589;SDS011;10453;50.810;12.540;2023-05-24T09:24:00;25.75;;;5.82;;
20589;SDS011;10453;50.810;12.540;2023-05-24T09:28:18;26.25;;;5.65;;
20589;SDS011;10453;50.810;12.540;2023-05-24T09:32:37;23.23;;;5.32;;
20589;SDS011;10453;50.810;12.540;2023-05-24T09:36:55;24.80;;;5.80;;
20589;SDS011;10453;50.810;12.540;2023-05-24T09:41:12;18.52;;;5.30;;
20589;SDS011;10453;50.810;12.540;2023-05-24T09:45:29;17.17;;;5.32;;
20589;SDS011;10453;50.810;12.540;2023-05-24T09:49:47;23.58;;;6.20;;
20589;SDS011;10453;50.810;12.540;2023-05-24T09:54:08;25.63;;;5.85;;
20589;SDS011;10453;50.810;12.540;2023-05-24T09:58:29;23.27;;;6.15;;
20589;SDS011;10453;50.810;12.540;2023-05-24T10:03:08;22.20;;;5.70;;
20589;SDS011;10453;50.810;12.540;2023-05-24T10:07:27;15.93;;;5.47;;
20589;SDS011;10453;50.810;12.540;2023-05-24T10:11:47;24.38;;;6.13;;
20589;SDS011;10453;50.810;12.540;2023-05-24T10:16:05;24.73;;;6.20;;
20589;SDS011;10453;50.810;12.540;2023-05-24T10:20:23;21.63;;;6.18;;
20589;SDS011;10453;50.810;12.540;2023-05-24T10:24:43;20.10;;;5.90;;
20589;SDS011;10453;50.810;12.540;2023-05-24T10:29:03;23.13;;;6.07;;
20589;SDS011;10453;50.810;12.540;2023-05-24T10:33:25;20.27;;;5.40;;
20589;SDS011;10453;50.810;12.540;2023-05-24T10:37:47;18.85;;;5.80;;
20589;SDS011;10453;50.810;12.540;2023-05-24T10:42:05;20.23;;;5.97;;
20589;SDS011;10453;50.810;12.540;2023-05-24T10:46:25;21.10;;;6.15;;
20589;SDS011;10453;50.810;12.540;2023-05-24T10:50:44;15.90;;;5.43;;
20589;SDS011;10453;50.810;12.540;2023-05-24T10:55:03;17.45;;;6.20;;
20589;SDS011;10453;50.810;12.540;2023-05-24T10:59:33;19.23;;;5.78;;
20589;SDS011;10453;50.810;12.540;2023-05-24T11:04:05;13.35;;;4.88;;
20589;SDS011;10453;50.810;12.540;2023-05-24T11:08:31;13.10;;;5.10;;
20589;SDS011;10453;50.810;12.540;2023-05-24T11:12:56;19.58;;;5.72;;
20589;SDS011;10453;50.810;12.540;2023-05-24T11:17:15;15.73;;;5.28;;
20589;SDS011;10453;50.810;12.540;2023-05-24T11:21:34;13.32;;;4.45;;
20589;SDS011;10453;50.810;12.540;2023-05-24T11:25:53;20.17;;;5.80;;
20589;SDS011;10453;50.810;12.540;2023-05-24T11:30:11;21.42;;;5.88;;
20589;SDS011;10453;50.810;12.540;2023-05-24T11:34:29;16.70;;;5.22;;
20589;SDS011;10453;50.810;12.540;2023-05-24T11:38:47;15.07;;;4.97;;
20589;SDS011;10453;50.810;12.540;2023-05-24T11:43:05;19.43;;;5.50;;
20589;SDS011;10453;50.810;12.540;2023-05-24T11:47:23;15.77;;;4.80;;
20589;SDS011;10453;50.810;12.540;2023-05-24T11:51:41;16.33;;;4.57;;
20589;SDS011;10453;50.810;12.540;2023-05-24T11:55:59;17.23;;;4.85;;
20589;SDS011;10453;50.810;12.540;2023-05-24T12:00:23;20.38;;;5.53;;
20589;SDS011;10453;50.810;12.540;2023-05-24T12:04:41;16.95;;;5.60;;
20589;SDS011;10453;50.810;12.540;2023-05-24T12:08:59;16.52;;;4.50;;
20589;SDS011;10453;50.810;12.540;2023-05-24T12:13:20;19.80;;;5.35;;
20589;SDS011;10453;50.810;12.540;2023-05-24T12:17:41;16.20;;;4.60;;
20589;SDS011;10453;50.810;12.540;2023-05-24T12:21:59;20.10;;;5.18;;
20589;SDS011;10453;50.810;12.540;2023-05-24T12:26:21;17.42;;;4.75;;
20589;SDS011;10453;50.810;12.540;2023-05-24T12:30:39;14.60;;;4.30;;
20589;SDS011;10453;50.810;12.540;2023-05-24T12:34:59;15.95;;;5.40;;
20589;SDS011;10453;50.810;12.540;2023-05-24T12:39:23;16.88;;;4.97;;
20589;SDS011;10453;50.810;12.540;2023-05-24T12:43:53;14.80;;;4.65;;
20589;SDS011;10453;50.810;12.540;2023-05-24T12:48:12;20.25;;;4.93;;
20589;SDS011;10453;50.810;12.540;2023-05-24T12:52:30;20.20;;;5.75;;
20589;SDS011;10453;50.810;12.540;2023-05-24T12:56:48;15.30;;;4.72;;
20589;SDS011;10453;50.810;12.540;2023-05-24T13:01:08;15.90;;;4.35;;
20589;SDS011;10453;50.810;12.540;2023-05-24T13:05:26;11.88;;;4.93;;
20589;SDS011;10453;50.810;12.540;2023-05-24T13:09:44;16.38;;;4.93;;
20589;SDS011;10453;50.810;12.540;2023-05-24T13:14:02;21.00;;;5.53;;
20589;SDS011;10453;50.810;12.540;2023-05-24T13:18:19;18.50;;;5.13;;
20589;SDS011;10453;50.810;12.540;2023-05-24T13:22:37;16.58;;;4.70;;
20589;SDS011;10453;50.810;12.540;2023-05-24T13:26:55;16.83;;;5.43;;
20589;SDS011;10453;50.810;12.540;2023-05-24T13:35:54;16.67;;;5.18;;
20589;SDS011;10453;50.810;12.540;2023-05-24T13:40:12;20.98;;;5.93;;
20589;SDS011;10453;50.810;12.540;2023-05-24T13:44:29;15.82;;;4.18;;
20589;SDS011;10453;50.810;12.540;2023-05-24T13:48:48;15.35;;;4.85;;
20589;SDS011;10453;50.810;12.540;2023-05-24T13:53:05;16.30;;;4.60;;
20589;SDS011;10453;50.810;12.540;2023-05-24T13:57:22;11.60;;;3.85;;
20589;SDS011;10453;50.810;12.540;2023-05-24T14:01:49;14.82;;;4.57;;
20589;SDS011;10453;50.810;12.540;2023-05-24T14:06:07;17.50;;;4.82;;
20589;SDS011;10453;50.810;12.540;2023-05-24T14:10:25;11.68;;;4.13;;
20589;SDS011;10453;50.810;12.540;2023-05-24T14:14:42;16.45;;;4.53;;
20589;SDS011;10453;50.810;12.540;2023-05-24T14:19:04;17.48;;;5.00;;
20589;SDS011;10453;50.810;12.540;2023-05-24T14:23:22;15.88;;;5.07;;
20589;SDS011;10453;50.810;12.540;2023-05-24T14:27:39;12.85;;;4.35;;
20589;SDS011;10453;50.810;12.540;2023-05-24T14:31:59;14.23;;;4.75;;
20589;SDS011;10453;50.810;12.540;2023-05-24T14:36:17;17.63;;;4.60;;
20589;SDS011;10453;50.810;12.540;2023-05-24T14:40:35;15.40;;;4.75;;
20589;SDS011;10453;50.810;12.540;2023-05-24T14:44:59;12.80;;;4.53;;
20589;SDS011;10453;50.810;12.540;2023-05-24T14:49:18;14.05;;;4.53;;
20589;SDS011;10453;50.810;12.540;2023-05-24T14:53:36;13.57;;;4.25;;
20589;SDS011;10453;50.810;12.540;2023-05-24T14:57:55;16.80;;;4.38;;
20589;SDS011;10453;50.810;12.540;2023-05-24T15:02:14;14.02;;;4.13;;
20589;SDS011;10453;50.810;12.540;2023-05-24T15:07:00;16.05;;;4.32;;
20589;SDS011;10453;50.810;12.540;2023-05-24T15:11:21;17.77;;;4.63;;
20589;SDS011;10453;50.810;12.540;2023-05-24T15:15:38;13.02;;;4.70;;
20589;SDS011;10453;50.810;12.540;2023-05-24T15:19:56;18.40;;;5.43;;
20589;SDS011;10453;50.810;12.540;2023-05-24T15:24:15;14.07;;;4.65;;
20589;SDS011;10453;50.810;12.540;2023-05-24T15:28:32;17.05;;;4.72;;
20589;SDS011;10453;50.810;12.540;2023-05-24T15:32:50;11.13;;;4.10;;
20589;SDS011;10453;50.810;12.540;2023-05-24T15:37:07;12.00;;;4.20;;
20589;SDS011;10453;50.810;12.540;2023-05-24T15:41:25;14.67;;;4.40;;
20589;SDS011;10453;50.810;12.540;2023-05-24T15:45:47;9.23;;;3.45;;
20589;SDS011;10453;50.810;12.540;2023-05-24T15:50:05;7.97;;;3.63;;
20589;SDS011;10453;50.810;12.540;2023-05-24T15:54:24;11.52;;;4.05;;
20589;SDS011;10453;50.810;12.540;2023-05-24T15:58:42;11.40;;;4.25;;
20589;SDS011;10453;50.810;12.540;2023-05-24T16:02:59;12.55;;;3.85;;
20589;SDS011;10453;50.810;12.540;2023-05-24T16:07:20;11.35;;;3.50;;
20589;SDS011;10453;50.810;12.540;2023-05-24T16:11:38;13.23;;;3.90;;
20589;SDS011;10453;50.810;12.540;2023-05-24T16:15:56;9.85;;;3.80;;
20589;SDS011;10453;50.810;12.540;2023-05-24T16:20:14;12.88;;;3.92;;
20589;SDS011;10453;50.810;12.540;2023-05-24T16:24:34;13.07;;;3.38;;
20589;SDS011;10453;50.810;12.540;2023-05-24T16:28:52;12.00;;;4.13;;
20589;SDS011;10453;50.810;12.540;2023-05-24T16:33:09;14.05;;;4.05;;
20589;SDS011;10453;50.810;12.540;2023-05-24T16:37:30;10.23;;;4.03;;
20589;SDS011;10453;50.810;12.540;2023-05-24T16:41:48;10.63;;;3.95;;
20589;SDS011;10453;50.810;12.540;2023-05-24T16:46:07;20.38;;;4.55;;
20589;SDS011;10453;50.810;12.540;2023-05-24T16:50:24;18.55;;;4.40;;
20589;SDS011;10453;50.810;12.540;2023-05-24T16:54:41;15.73;;;4.22;;
20589;SDS011;10453;50.810;12.540;2023-05-24T16:58:59;14.30;;;4.78;;
20589;SDS011;10453;50.810;12.540;2023-05-24T17:03:16;14.40;;;4.28;;
20589;SDS011;10453;50.810;12.540;2023-05-24T17:07:38;15.88;;;4.88;;
20589;SDS011;10453;50.810;12.540;2023-05-24T17:11:55;13.00;;;4.35;;
20589;SDS011;10453;50.810;12.540;2023-05-24T17:16:13;14.82;;;5.47;;
20589;SDS011;10453;50.810;12.540;2023-05-24T17:20:30;19.08;;;6.47;;
20589;SDS011;10453;50.810;12.540;2023-05-24T17:24:48;14.77;;;5.20;;
20589;SDS011;10453;50.810;12.540;2023-05-24T17:29:05;13.63;;;4.95;;
20589;SDS011;10453;50.810;12.540;2023-05-24T17:33:23;16.25;;;5.00;;
20589;SDS011;10453;50.810;12.540;2023-05-24T17:37:42;16.25;;;4.47;;
20589;SDS011;10453;50.810;12.540;2023-05-24T17:41:59;22.33;;;5.35;;
20589;SDS011;10453;50.810;12.540;2023-05-24T17:46:16;16.55;;;5.72;;
20589;SDS011;10453;50.810;12.540;2023-05-24T17:50:34;16.85;;;5.75;;
20589;SDS011;10453;50.810;12.540;2023-05-24T17:54:52;18.08;;;5.60;;
20589;SDS011;10453;50.810;12.540;2023-05-24T17:59:09;14.18;;;5.63;;
20589;SDS011;10453;50.810;12.540;2023-05-24T18:03:26;16.95;;;5.93;;
20589;SDS011;10453;50.810;12.540;2023-05-24T18:07:44;17.08;;;6.03;;
20589;SDS011;10453;50.810;12.540;2023-05-24T18:12:01;14.60;;;5.50;;
20589;SDS011;10453;50.810;12.540;2023-05-24T18:16:19;19.15;;;6.40;;
20589;SDS011;10453;50.810;12.540;2023-05-24T18:20:37;18.75;;;8.23;;
20589;SDS011;10453;50.810;12.540;2023-05-24T18:24:55;24.73;;;8.13;;
20589;SDS011;10453;50.810;12.540;2023-05-24T18:29:12;17.23;;;7.38;;
20589;SDS011;10453;50.810;12.540;2023-05-24T18:33:30;26.50;;;8.10;;
20589;SDS011;10453;50.810;12.540;2023-05-24T18:37:47;24.52;;;9.07;;
20589;SDS011;10453;50.810;12.540;2023-05-24T18:42:05;18.77;;;8.40;;
20589;SDS011;10453;50.810;12.540;2023-05-24T18:46:24;15.82;;;7.18;;
20589;SDS011;10453;50.810;12.540;2023-05-24T18:50:41;18.15;;;6.88;;
20589;SDS011;10453;50.810;12.540;2023-05-24T18:54:59;17.70;;;6.75;;
20589;SDS011;10453;50.810;12.540;2023-05-24T18:59:17;15.17;;;6.73;;
20589;SDS011;10453;50.810;12.540;2023-05-24T19:03:34;15.45;;;6.07;;
20589;SDS011;10453;50.810;12.540;2023-05-24T19:07:51;18.40;;;6.80;;
20589;SDS011;10453;50.810;12.540;2023-05-24T19:12:09;15.98;;;6.57;;
20589;SDS011;10453;50.810;12.540;2023-05-24T19:16:27;16.17;;;6.57;;
20589;SDS011;10453;50.810;12.540;2023-05-24T19:20:44;17.63;;;7.10;;
20589;SDS011;10453;50.810;12.540;2023-05-24T19:25:01;18.33;;;7.70;;
20589;SDS011;10453;50.810;12.540;2023-05-24T19:29:19;19.23;;;7.47;;
20589;SDS011;10453;50.810;12.540;2023-05-24T19:33:37;18.75;;;8.15;;
20589;SDS011;10453;50.810;12.540;2023-05-24T19:38:07;17.60;;;8.05;;
20589;SDS011;10453;50.810;12.540;2023-05-24T19:42:25;15.63;;;7.72;;
20589;SDS011;10453;50.810;12.540;2023-05-24T19:46:43;18.35;;;8.13;;
20589;SDS011;10453;50.810;12.540;2023-05-24T19:51:01;18.98;;;7.88;;
20589;SDS011;10453;50.810;12.540;2023-05-24T19:55:18;17.45;;;8.15;;
20589;SDS011;10453;50.810;12.540;2023-05-24T19:59:36;21.13;;;8.55;;
20589;SDS011;10453;50.810;12.540;2023-05-24T20:03:53;18.13;;;8.95;;
20589;SDS011;10453;50.810;12.540;2023-05-24T20:08:11;20.20;;;8.57;;
20589;SDS011;10453;50.810;12.540;2023-05-24T20:12:28;25.48;;;8.85;;
20589;SDS011;10453;50.810;12.540;2023-05-24T20:16:46;17.77;;;8.77;;
20589;SDS011;10453;50.810;12.540;2023-05-24T20:21:04;18.35;;;7.97;;
20589;SDS011;10453;50.810;12.540;2023-05-24T20:25:21;16.15;;;8.95;;
20589;SDS011;10453;50.810;12.540;2023-05-24T20:29:40;18.20;;;8.75;;
20589;SDS011;10453;50.810;12.540;2023-05-24T20:33:58;20.37;;;8.90;;
20589;SDS011;10453;50.810;12.540;2023-05-24T20:38:15;21.08;;;8.98;;
20589;SDS011;10453;50.810;12.540;2023-05-24T20:42:33;21.25;;;8.75;;
20589;SDS011;10453;50.810;12.540;2023-05-24T20:46:51;17.48;;;8.18;;
20589;SDS011;10453;50.810;12.540;2023-05-24T20:51:08;19.00;;;9.40;;
20589;SDS011;10453;50.810;12.540;2023-05-24T20:55:27;22.60;;;9.00;;
20589;SDS011;10453;50.810;12.540;2023-05-24T20:59:44;19.67;;;9.30;;
20589;SDS011;10453;50.810;12.540;2023-05-24T21:04:02;20.33;;;9.65;;
20589;SDS011;10453;50.810;12.540;2023-05-24T21:08:19;25.20;;;9.30;;
20589;SDS011;10453;50.810;12.540;2023-05-24T21:12:37;18.33;;;9.57;;
20589;SDS011;10453;50.810;12.540;2023-05-24T21:16:55;20.33;;;10.60;;
20589;SDS011;10453;50.810;12.540;2023-05-24T21:21:12;17.45;;;9.27;;
20589;SDS011;10453;50.810;12.540;2023-05-24T21:25:30;17.90;;;9.23;;
20589;SDS011;10453;50.810;12.540;2023-05-24T21:29:47;17.80;;;10.38;;
20589;SDS011;10453;50.810;12.540;2023-05-24T21:34:04;18.15;;;9.90;;
20589;SDS011;10453;50.810;12.540;2023-05-24T21:38:22;18.80;;;9.77;;
20589;SDS011;10453;50.810;12.540;2023-05-24T21:42:40;20.83;;;9.60;;
20589;SDS011;10453;50.810;12.540;2023-05-24T21:46:57;22.08;;;10.32;;
20589;SDS011;10453;50.810;12.540;2023-05-24T21:51:14;24.33;;;10.70;;
20589;SDS011;10453;50.810;12.540;2023-05-24T21:55:32;21.75;;;9.63;;
20589;SDS011;10453;50.810;12.540;2023-05-24T21:59:49;23.25;;;10.27;;
20589;SDS011;10453;50.810;12.540;2023-05-24T22:04:07;23.85;;;10.13;;
20589;SDS011;10453;50.810;12.540;2023-05-24T22:08:25;22.58;;;10.57;;
20589;SDS011;10453;50.810;12.540;2023-05-24T22:12:43;26.15;;;12.40;;
20589;SDS011;10453;50.810;12.540;2023-05-24T22:17:01;19.80;;;10.02;;
20589;SDS011;10453;50.810;12.540;2023-05-24T22:21:18;21.08;;;10.77;;
20589;SDS011;10453;50.810;12.540;2023-05-24T22:29:58;27.23;;;10.55;;
20589;SDS011;10453;50.810;12.540;2023-05-24T22:34:23;29.10;;;11.50;;
20589;SDS011;10453;50.810;12.540;2023-05-24T22:38:42;19.30;;;10.90;;
20589;SDS011;10453;50.810;12.540;2023-05-24T22:43:01;22.25;;;10.38;;
20589;SDS011;10453;50.810;12.540;2023-05-24T22:47:18;25.77;;;11.57;;
20589;SDS011;10453;50.810;12.540;2023-05-24T22:51:38;27.85;;;12.23;;
20589;SDS011;10453;50.810;12.540;2023-05-24T22:56:00;27.90;;;13.23;;
20589;SDS011;10453;50.810;12.540;2023-05-24T23:00:17;16.98;;;10.65;;
20589;SDS011;10453;50.810;12.540;2023-05-24T23:04:36;26.23;;;12.52;;
20589;SDS011;10453;50.810;12.540;2023-05-24T23:08:54;25.40;;;12.10;;
20589;SDS011;10453;50.810;12.540;2023-05-24T23:13:14;17.85;;;10.13;;
20589;SDS011;10453;50.810;12.540;2023-05-24T23:17:33;22.83;;;11.25;;
20589;SDS011;10453;50.810;12.540;2023-05-24T23:21:50;20.50;;;10.75;;
20589;SDS011;10453;50.810;12.540;2023-05-24T23:26:08;23.90;;;12.03;;
20589;SDS011;10453;50.810;12.540;2023-05-24T23:30:26;21.58;;;10.52;;
20589;SDS011;10453;50.810;12.540;2023-05-24T23:34:44;23.35;;;12.18;;
20589;SDS011;10453;50.810;12.540;2023-05-24T23:39:01;22.95;;;11.73;;
20589;SDS011;10453;50.810;12.540;2023-05-24T23:43:19;19.02;;;10.80;;
20589;SDS011;10453;50.810;12.540;2023-05-24T23:47:37;25.85;;;10.95;;
20589;SDS011;10453;50.810;12.540;2023-05-24T23:51:54;20.13;;;11.48;;
20589;SDS011;10453;50.810;12.540;2023-05-24T23:56:11;18.77;;;12.07;;
